Latest Weather Observations for Melbourne Airport

IDV60801

Issued at 3:32 pm EDT Tuesday 29 November 2022 (issued every 10 minutes, with the page automatically refreshed every 10 minutes)

About weather observations | Map of weather stations | Latest weather observations for VIC | Other Formats
Station Details ID: 086282 Name: MELBOURNE AIRPORT Lat: -37.67 Lon: 144.83 Height: 113.4 m
Data from the previous 72 hours. | See also: Recent months at Melbourne Airport
Date/Time
EDT
Temp
°C
App
Temp
°C
Dew
Point
°C
Rel
Hum
%
Delta-T
°C
Wind Press
QNH
hPa
Press
MSL
hPa
Rain since
9am
mm
Dir  Spd
km/h
Gust
km/h
Spd
kts
Gust
kts
29/03:00pm 17.4 14.7 8.8 57 4.5 SSE 13 20 7 11 1016.9 1016.7 0.0
29/02:30pm 16.5 12.3 8.2 58 4.2 S 20 30 11 16 1017.1 1016.9 0.0
29/02:00pm 16.6 11.8 8.8 60 4.0 SSE 24 35 13 19 1017.1 1016.9 0.0
29/01:30pm 16.7 12.3 7.4 54 4.7 SSE 20 33 11 18 1016.9 1016.7 0.0
29/01:00pm 17.2 12.1 5.8 47 5.6 SSW 22 32 12 17 1016.9 1016.7 0.0
29/12:30pm 18.1 13.2 5.3 43 6.2 SSW 20 30 11 16 1016.9 1016.7 0.0
29/12:00pm 17.3 12.3 6.5 49 5.3 SSW 22 28 12 15 1017.0 1016.8 0.0
29/11:30am 17.3 11.4 5.6 46 5.7 SW 26 33 14 18 1016.9 1016.7 0.0
29/11:00am 16.6 11.8 7.3 54 4.7 SW 22 30 12 16 1016.6 1016.4 0.0
29/10:30am 16.6 11.7 8.6 59 4.1 WSW 24 32 13 17 1016.4 1016.2 0.0
29/10:00am 16.2 11.1 7.7 57 4.3 SW 24 35 13 19 1016.2 1016.0 0.0
29/09:30am 15.8 11.2 9.7 67 3.2 WSW 24 32 13 17 1016.1 1015.9 0.0
29/09:00am 14.6 9.6 8.1 65 3.3 SW 24 35 13 19 1015.9 1015.7 0.2
29/08:30am 14.3 9.8 8.7 69 2.8 SW 22 30 12 16 1015.5 1015.3 0.2
29/08:00am 13.3 9.0 9.4 77 2.0 WSW 22 30 12 16 1015.0 1014.9 0.2
29/07:30am 12.5 8.5 9.1 80 1.7 W 20 28 11 15 1014.6 1014.5 0.2
29/07:00am 11.7 8.7 9.1 84 1.3 W 15 19 8 10 1014.2 1014.1 0.2
29/06:30am 11.1 7.7 9.0 87 1.0 W 17 24 9 13 1013.9 1013.8 0.2
29/06:00am 11.4 7.7 9.3 87 1.1 W 19 26 10 14 1013.4 1013.3 0.2
29/05:30am 11.6 7.9 9.5 87 1.1 W 19 28 10 15 1012.9 1012.8 0.2
29/05:00am 11.7 8.4 9.6 87 1.1 W 17 22 9 12 1012.4 1012.2 0.2
29/04:30am 11.5 8.1 9.2 86 1.2 W 17 22 9 12 1012.0 1011.8 0.2
29/04:00am 11.3 7.5 9.2 87 1.1 W 19 22 10 12 1011.8 1011.6 0.2
29/03:30am 11.2 7.5 9.5 89 0.9 W 19 28 10 15 1011.9 1011.7 0.2
29/03:00am 11.8 9.6 9.2 84 1.3 W 11 15 6 8 1012.1 1011.9 0.2
29/02:30am 11.8 8.3 8.8 82 1.5 W 17 22 9 12 1011.9 1011.7 0.2
29/02:00am 12.2 8.4 9.0 81 1.6 W 19 28 10 15 1011.7 1011.5 0.2
29/01:30am 12.7 9.1 9.7 82 1.5 WSW 19 28 10 15 1011.8 1011.6 0.2
29/01:00am 12.0 10.2 9.6 85 1.2 SW 9 13 5 7 1011.8 1011.6 0.2
29/12:30am 12.6 10.9 10.0 84 1.3 SSW 9 11 5 6 1011.5 1011.3 0.2
29/12:00am 12.7 10.8 9.2 79 1.8 WSW 9 13 5 7 1011.3 1011.1 0.2
 
Date/Time
EDT
Temp
°C
App
Temp
°C
Dew
Point
°C
Rel
Hum
%
Delta-T
°C
Wind Press
QNH
hPa
Press
MSL
hPa
Rain since
9am
mm
Dir  Spd
km/h
Gust
km/h
Spd
kts
Gust
kts
28/11:30pm 13.0 11.3 10.0 82 1.6 SW 9 13 5 7 1011.2 1011.0 0.2
28/11:00pm 13.5 11.4 9.9 79 1.9 SSW 11 17 6 9 1011.2 1011.0 0.2
28/10:30pm 14.1 12.4 9.9 76 2.2 W 9 13 5 7 1010.9 1010.7 0.2
28/10:00pm 14.3 11.4 9.5 73 2.5 W 15 17 8 9 1010.5 1010.3 0.2
28/09:30pm 14.9 11.6 9.5 70 2.8 WSW 17 24 9 13 1010.0 1009.8 0.2
28/09:00pm 15.1 11.7 9.0 67 3.1 WSW 17 24 9 13 1009.6 1009.4 0.2
28/08:30pm 15.6 11.4 8.4 62 3.7 WSW 20 30 11 16 1009.4 1009.2 0.2
28/08:00pm 15.9 12.3 8.2 60 3.9 WSW 17 24 9 13 1009.0 1008.8 0.2
28/07:30pm 16.1 12.2 8.6 61 3.8 W 19 28 10 15 1008.6 1008.4 0.2
28/07:00pm 16.7 12.4 7.9 56 4.5 W 20 28 11 15 1008.4 1008.2 0.2
28/06:30pm 17.2 12.2 8.1 55 4.7 WNW 24 30 13 16 1008.0 1007.8 0.2
28/06:00pm 17.5 12.6 7.0 50 5.3 W 22 30 12 16 1007.8 1007.6 0.2
28/05:30pm 18.0 12.8 7.1 49 5.5 W 24 39 13 21 1007.8 1007.6 0.2
28/05:00pm 17.6 13.4 7.4 51 5.2 W 19 28 10 15 1007.9 1007.7 0.2
28/04:30pm 17.3 13.5 7.4 52 5.0 WNW 17 26 9 14 1008.0 1007.8 0.2
28/04:00pm 16.2 11.4 7.4 56 4.4 W 22 35 12 19 1008.3 1008.1 0.2
28/03:30pm 17.0 13.3 6.2 49 5.3 WNW 15 28 8 15 1008.3 1008.1 0.2
28/03:00pm 16.1 12.1 6.5 53 4.7 W 17 26 9 14 1008.5 1008.3 0.2
28/02:30pm 17.7 13.8 7.2 50 5.3 WNW 17 22 9 12 1008.6 1008.4 0.0
28/02:00pm 16.1 11.0 6.0 51 4.9 WSW 22 35 12 19 1008.9 1008.7 0.0
28/01:30pm 16.2 11.7 6.1 51 4.9 WSW 19 28 10 15 1009.1 1008.9 0.0
28/01:00pm 15.3 10.1 5.5 52 4.7 W 22 30 12 16 1009.3 1009.1 0.0
28/12:30pm 16.0 11.6 7.2 56 4.4 W 20 28 11 15 1009.3 1009.1 0.0
28/12:00pm 15.4 11.1 5.3 51 4.8 WSW 17 26 9 14 1009.3 1009.1 0.0
28/11:30am 15.4 10.1 5.0 50 4.9 W 22 35 12 19 1009.5 1009.3 0.0
28/11:00am 15.4 10.5 5.3 51 4.8 W 20 26 11 14 1009.5 1009.3 0.0
28/10:30am 14.9 11.5 5.7 54 4.4 WSW 13 26 7 14 1009.4 1009.2 0.0
28/10:00am 14.4 9.8 6.5 59 3.8 WSW 20 35 11 19 1009.6 1009.4 0.0
28/09:30am 13.6 8.9 6.2 61 3.5 WSW 20 28 11 15 1009.6 1009.4 0.0
28/09:00am 13.1 9.5 6.7 65 3.1 W 15 26 8 14 1009.4 1009.2 0.6
28/08:30am 12.2 8.3 7.1 71 2.5 W 17 24 9 13 1009.3 1009.1 0.6
28/08:00am 10.9 7.4 7.0 77 1.9 WNW 15 20 8 11 1009.3 1009.1 0.6
28/07:30am 10.0 6.4 6.7 80 1.6 WNW 15 20 8 11 1009.0 1008.8 0.6
28/07:00am 9.3 5.6 6.2 81 1.4 NW 15 17 8 9 1008.8 1008.6 0.6
28/06:30am 8.1 4.3 5.9 86 1.0 WNW 15 19 8 10 1008.6 1008.4 0.6
28/06:00am 7.6 4.1 5.4 86 1.0 NW 13 17 7 9 1008.4 1008.2 0.6
28/05:30am 7.8 5.1 5.4 85 1.1 NNW 9 11 5 6 1008.2 1008.0 0.6
28/05:00am 7.5 4.8 5.5 87 0.9 NW 9 11 5 6 1008.2 1008.0 0.6
28/04:30am 7.8 5.1 5.8 87 0.9 NW 9 13 5 7 1008.0 1007.8 0.6
28/04:00am 6.7 3.8 4.9 88 0.8 N 9 11 5 6 1007.8 1007.6 0.6
28/03:30am 7.4 4.8 5.9 90 0.7 NW 9 11 5 6 1007.8 1007.6 0.6
28/03:00am 7.4 5.1 5.5 88 0.9 WNW 7 9 4 5 1007.6 1007.4 0.6
28/02:30am 7.8 6.5 5.9 88 0.9 WNW 2 7 1 4 1007.6 1007.4 0.6
28/02:00am 8.4 6.2 6.4 87 0.9 WNW 7 9 4 5 1007.9 1007.7 0.6
28/01:30am 8.5 5.5 6.1 85 1.1 W 11 13 6 7 1008.1 1007.9 0.6
28/01:00am 8.5 5.6 6.5 87 0.9 W 11 13 6 7 1008.2 1008.0 0.6
28/12:30am 8.6 5.6 6.2 85 1.1 W 11 15 6 8 1008.2 1008.0 0.6
28/12:00am 9.6 6.3 6.5 81 1.5 WSW 13 15 7 8 1008.5 1008.3 0.6
 
Date/Time
EDT
Temp
°C
App
Temp
°C
Dew
Point
°C
Rel
Hum
%
Delta-T
°C
Wind Press
QNH
hPa
Press
MSL
hPa
Rain since
9am
mm
Dir  Spd
km/h
Gust
km/h
Spd
kts
Gust
kts
27/11:30pm 10.5 6.9 6.6 77 1.8 WSW 15 19 8 10 1008.6 1008.4 0.6
27/11:00pm 11.1 8.7 8.5 84 1.3 SSW 11 15 6 8 1008.5 1008.3 0.6
27/10:30pm 12.0 9.3 8.8 81 1.6 S 13 19 7 10 1008.4 1008.2 0.6
27/10:00pm 12.2 9.6 9.2 82 1.5 S 13 19 7 10 1008.3 1008.1 0.6
27/09:30pm 12.9 11.3 10.1 83 1.5 S 9 15 5 8 1007.9 1007.7 0.6
27/09:00pm 12.8 10.8 10.3 85 1.3 S 11 13 6 7 1007.6 1007.4 0.6
27/08:30pm 13.3 10.9 10.1 81 1.7 S 13 17 7 9 1007.4 1007.2 0.6
27/08:00pm 13.5 9.6 8.8 73 2.4 SW 19 28 10 15 1007.2 1007.0 0.6
27/07:30pm 13.7 10.3 9.0 73 2.4 SW 17 28 9 15 1006.7 1006.5 0.6
27/07:00pm 13.3 10.0 10.8 85 1.3 SSW 19 26 10 14 1006.4 1006.2 0.6
27/06:58pm 13.3 9.8 10.8 85 1.3 SSW 20 28 11 15 1006.4 1006.2 0.6
27/06:48pm 13.0 9.1 10.9 87 1.1 SW 22 35 12 19 1006.4 1006.2 0.6
27/06:38pm 13.4 11.4 11.6 89 1.0 SSW 13 22 7 12 1006.1 1006.0 0.6
27/06:30pm 13.4 11.0 11.5 88 1.0 SSW 15 22 8 12 1006.0 1005.9 0.6
27/06:26pm 13.7 11.4 11.6 87 1.1 SSW 15 22 8 12 1005.9 1005.8 0.0
27/06:00pm 13.9 10.9 11.9 88 1.1 S 19 32 10 17 1005.5 1005.4 0.0
27/05:43pm 14.1 11.0 12.1 88 1.1 S 20 30 11 16 1005.4 1005.3 0.0
27/05:30pm 14.4 9.7 11.9 85 1.4 SSW 28 41 15 22 1005.3 1005.1 0.0
27/05:29pm 14.4 9.6 11.6 83 1.5 SSW 28 41 15 22 1005.3 1005.1 0.0
27/05:04pm 16.7 9.7 9.9 64 3.6 SW 37 56 20 30 1004.6 1004.4 0.0
27/05:00pm 17.9 11.6 9.8 59 4.3 SW 33 46 18 25 1004.4 1004.2 0.0
27/04:30pm 18.1 13.5 9.5 57 4.5 WSW 24 37 13 20 1004.0 1003.8 0.0
27/04:00pm 20.8 17.4 7.8 43 6.8 WSW 15 26 8 14 1003.7 1003.5 0.0
27/03:30pm 19.7 15.3 7.4 45 6.3 WSW 20 32 11 17 1004.0 1003.8 0.0
27/03:00pm 19.3 14.4 7.1 45 6.2 WSW 22 35 12 19 1004.0 1003.8 0.0
27/02:30pm 20.3 15.0 7.0 42 6.8 WSW 24 33 13 18 1004.2 1004.0 0.0
27/02:00pm 18.4 12.3 6.6 46 5.9 WSW 28 37 15 20 1004.5 1004.3 0.0
27/01:30pm 18.9 14.5 8.8 52 5.3 W 22 37 12 20 1004.5 1004.3 0.0
27/01:00pm 18.7 13.3 7.8 49 5.6 WSW 26 35 14 19 1004.7 1004.5 0.0
27/12:30pm 18.0 12.8 8.8 55 4.8 WSW 26 33 14 18 1004.8 1004.6 0.0
27/12:00pm 17.8 12.9 8.4 54 4.9 WSW 24 35 13 19 1004.7 1004.5 0.0
27/11:30am 17.4 12.5 8.3 55 4.7 WSW 24 30 13 16 1004.6 1004.4 0.0
27/11:00am 16.9 12.8 7.8 55 4.6 WSW 19 32 10 17 1004.6 1004.4 0.0
27/10:30am 17.1 13.4 9.5 61 4.0 SW 19 26 10 14 1004.7 1004.5 0.0
27/10:00am 16.5 13.0 10.1 66 3.4 WSW 19 30 10 16 1004.7 1004.5 0.0
27/09:30am 15.9 12.9 10.7 71 2.8 WSW 17 26 9 14 1004.7 1004.5 0.0
27/09:00am 15.3 12.5 11.3 77 2.2 WSW 17 26 9 14 1004.8 1004.6 0.4
27/08:30am 14.7 11.8 10.9 78 2.0 SW 17 26 9 14 1004.7 1004.5 0.4
27/08:00am 13.9 12.2 12.3 90 0.9 SW 13 17 7 9 1004.4 1004.2 0.4
27/07:30am 14.1 13.0 11.8 86 1.2 NW 9 11 5 6 1004.0 1003.8 0.4
27/07:00am 12.8 11.2 11.7 93 0.6 NNE 11 15 6 8 1003.7 1003.5 0.4
27/06:30am 12.5 10.9 11.6 94 0.5 N 11 13 6 7 1003.6 1003.4 0.4
27/06:00am 11.9 12.2 11.0 94 0.5 CALM 0 0 0 0 1003.6 1003.4 0.4
27/05:30am 12.2 12.5 10.9 92 0.7 CALM 0 0 0 0 1003.5 1003.3 0.4
27/05:00am 12.7 13.1 11.4 92 0.7 CALM 0 0 0 0 1003.4 1003.2 0.4
27/04:30am 12.8 12.0 11.2 90 0.8 WSW 6 7 3 4 1003.6 1003.4 0.4
27/04:00am 13.5 12.3 11.7 89 1.0 SW 9 13 5 7 1003.8 1003.6 0.4
27/03:30am 13.8 12.7 11.8 88 1.1 WSW 9 15 5 8 1003.9 1003.7 0.4
27/03:00am 13.9 12.4 11.9 88 1.1 SW 11 15 6 8 1004.1 1003.9 0.4
27/02:30am 13.7 12.5 11.6 87 1.1 SW 9 15 5 8 1004.1 1003.9 0.4
27/02:00am 14.5 12.6 11.8 84 1.5 WSW 13 17 7 9 1004.0 1003.8 0.4
27/01:30am 15.6 13.1 12.2 80 1.9 SW 17 26 9 14 1004.0 1003.8 0.4
27/01:00am 16.1 14.4 12.5 79 2.0 WSW 13 17 7 9 1003.9 1003.7 0.4
27/12:30am 17.0 14.6 12.5 75 2.5 W 17 26 9 14 1003.9 1003.7 0.4
27/12:00am 16.9 15.7 12.8 77 2.3 NW 11 13 6 7 1004.0 1003.8 0.4
 
Date/Time
EDT
Temp
°C
App
Temp
°C
Dew
Point
°C
Rel
Hum
%
Delta-T
°C
Wind Press
QNH
hPa
Press
MSL
hPa
Rain since
9am
mm
Dir  Spd
km/h
Gust
km/h
Spd
kts
Gust
kts
26/11:30pm 17.2 16.7 13.9 81 1.9 NW 9 11 5 6 1004.1 1003.9 0.4
26/11:00pm 18.0 15.6 13.9 77 2.4 N 19 26 10 14 1003.9 1003.7 0.4
26/10:30pm 18.2 14.9 14.1 77 2.4 N 24 32 13 17 1003.9 1003.7 0.4
26/10:00pm 17.8 14.5 14.1 79 2.1 N 24 30 13 16 1003.4 1003.2 0.4
26/09:30pm 17.8 15.1 14.5 81 1.9 N 22 30 12 16 1003.3 1003.1 0.4
26/09:00pm 17.8 14.8 14.7 82 1.8 NNE 24 30 13 16 1003.8 1003.6 0.4
26/08:30pm 17.3 14.7 14.9 86 1.4 N 22 28 12 15 1004.2 1004.0 0.4
26/08:00pm 17.9 14.5 14.8 82 1.8 NW 26 41 14 22 1005.1 1004.9 0.2
26/07:30pm 18.2 13.1 14.7 80 2.0 WNW 35 54 19 29 1005.0 1004.8 0.0
26/07:17pm 18.5 10.0 14.2 76 2.5 WNW 52 78 28 42 1004.5 1004.3 0.0
26/07:11pm 20.1 13.4 13.3 65 3.9 WNW 41 78 22 42 1004.1 1003.9 0.0
26/07:09pm 20.8 15.4 12.8 60 4.6 WNW 33 78 18 42 1004.0 1003.8 0.0
26/07:08pm 21.6 16.7 12.5 56 5.2 WNW 30 78 16 42 1004.0 1003.8 0.0
26/07:07pm 22.3 17.9 11.7 51 6.0 WNW 26 52 14 28 1003.9 1003.7 0.0
26/07:00pm 23.2 19.4 9.9 43 7.3 NNW 20 30 11 16 1003.1 1002.9 0.0
26/06:30pm 23.3 17.4 10.4 44 7.1 NNE 32 41 17 22 1002.2 1002.0 0.0
26/06:11pm 23.5 17.0 10.2 43 7.3 N 35 54 19 29 1002.1 1001.9 0.0
26/06:00pm 23.9 16.9 9.9 41 7.7 NNE 37 52 20 28 1001.9 1001.7 0.0
26/05:30pm 24.2 17.2 10.1 41 7.8 NNE 37 65 20 35 1002.3 1002.1 0.0
26/05:26pm 24.6 17.5 9.7 39 8.2 NNE 37 65 20 35 1002.1 1001.9 0.0
26/05:00pm 24.6 18.4 10.1 40 8.1 NNE 33 46 18 25 1002.9 1002.7 0.0
26/04:30pm 25.4 17.4 10.4 39 8.4 NNE 43 57 23 31 1002.9 1002.7 0.0
26/04:00pm 25.6 17.3 10.2 38 8.6 N 44 70 24 38 1003.2 1003.0 0.0
26/03:51pm 25.6 17.3 9.4 36 8.9 NNE 43 69 23 37 1003.4 1003.2 0.0

Other formats

Comma delimited format used in spreadsheet applications
http://www.bom.gov.au/fwo/IDV60801/IDV60801.94866.axf

JavaScript Object Notation format (JSON) in row-major order
http://www.bom.gov.au/fwo/IDV60801/IDV60801.94866.json

Data quality

Most of these data are generated automatically and are frequently updated. Quality checks on data are not normally performed. It is possible for incorrect values to appear. Refer to information at About Latest Weather Observations and please check the disclaimer before using these data.